Time;durP1;ratioP1;P1;durP2;ratioP2;P2;SDS_P1;SDS_P2;PMS_P1;PMS_P2;Temp;Humidity;BMP_temperature;BMP_pressure;BME280_temperature;BME280_humidity;BME280_pressure;Samples;Min_cycle;Max_cycle;Signal;HPM_P1;HPM_P2
2021/09/22 00:00:00;;;;;;;2.70;1.90;;;23.30;51.90;;;;;;5045569;28;20029;-59
2021/09/22 00:02:26;;;;;;;2.55;1.80;;;23.30;51.90;;;;;;5027869;28;20037;-58
2021/09/22 00:04:52;;;;;;;3.30;2.03;;;23.30;52.00;;;;;;5045754;28;20036;-59
2021/09/22 00:07:18;;;;;;;3.08;1.80;;;23.30;51.90;;;;;;5035438;28;20175;-57
2021/09/22 00:09:43;;;;;;;2.97;1.70;;;23.30;52.00;;;;;;5034609;28;20120;-59
2021/09/22 00:12:09;;;;;;;3.10;2.10;;;23.20;51.90;;;;;;5027800;28;20037;-59
2021/09/22 00:14:34;;;;;;;3.13;1.92;;;23.20;51.90;;;;;;5046084;28;20103;-59
2021/09/22 00:17:01;;;;;;;2.40;1.90;;;23.20;51.90;;;;;;5046244;28;20431;-56
2021/09/22 00:19:27;;;;;;;2.58;1.90;;;23.20;51.90;;;;;;5049186;28;20047;-59
2021/09/22 00:21:52;;;;;;;3.33;1.88;;;23.20;51.90;;;;;;5037243;28;20108;-58
2021/09/22 00:24:18;;;;;;;3.13;1.90;;;23.20;51.90;;;;;;5031208;28;20022;-59
2021/09/22 00:26:43;;;;;;;2.60;2.00;;;23.20;51.90;;;;;;5049140;28;20105;-56
2021/09/22 00:29:09;;;;;;;2.72;2.05;;;23.20;51.90;;;;;;5026434;28;20028;-56
2021/09/22 00:31:36;;;;;;;3.13;2.00;;;23.20;51.90;;;;;;5031462;28;20037;-59
2021/09/22 00:34:03;;;;;;;2.08;1.52;;;23.20;51.90;;;;;;5048461;28;20055;-59
2021/09/22 00:36:29;;;;;;;3.15;2.00;;;23.20;52.00;;;;;;5044718;28;20079;-59
2021/09/22 00:38:54;;;;;;;2.88;1.60;;;23.20;51.90;;;;;;5042777;28;20445;-59
2021/09/22 00:41:20;;;;;;;2.83;2.00;;;23.20;51.90;;;;;;5044710;28;20021;-59
2021/09/22 00:43:46;;;;;;;2.65;1.80;;;23.10;51.90;;;;;;5036539;28;20056;-60
2021/09/22 00:46:11;;;;;;;2.65;1.80;;;23.10;51.90;;;;;;5049522;28;20100;-58
2021/09/22 00:48:37;;;;;;;2.40;1.70;;;23.10;51.90;;;;;;5037043;28;20026;-60
2021/09/22 00:51:05;;;;;;;2.63;1.75;;;23.10;51.90;;;;;;5029612;28;20425;-58
2021/09/22 00:53:33;;;;;;;2.65;2.03;;;23.10;52.00;;;;;;5038272;28;20048;-59
2021/09/22 00:56:00;;;;;;;2.95;1.80;;;23.10;51.90;;;;;;5047878;28;20029;-59
2021/09/22 00:58:26;;;;;;;2.45;1.65;;;23.10;51.90;;;;;;5041975;28;20035;-59
2021/09/22 01:00:52;;;;;;;2.65;1.80;;;23.10;52.00;;;;;;5033189;28;20493;-59
2021/09/22 01:03:18;;;;;;;2.50;1.77;;;23.10;52.00;;;;;;5039052;28;20036;-59
2021/09/22 01:05:44;;;;;;;2.97;1.90;;;23.10;52.00;;;;;;5029174;28;20492;-59
2021/09/22 01:08:11;;;;;;;2.40;1.70;;;23.10;52.00;;;;;;5050678;28;20094;-56
2021/09/22 01:10:39;;;;;;;2.35;1.80;;;23.10;52.00;;;;;;5031726;28;20029;-59
2021/09/22 01:13:05;;;;;;;1.98;1.70;;;23.10;52.00;;;;;;5036802;28;20083;-59
2021/09/22 01:15:34;;;;;;;2.60;1.77;;;23.00;51.90;;;;;;5048090;28;20048;-56
2021/09/22 01:18:00;;;;;;;2.30;1.67;;;23.00;52.00;;;;;;5047337;28;20020;-59
2021/09/22 01:20:30;;;;;;;2.25;1.52;;;23.00;52.00;;;;;;5042470;28;20037;-55
2021/09/22 01:22:57;;;;;;;2.42;1.67;;;23.00;52.00;;;;;;5035308;28;20033;-59
2021/09/22 01:25:23;;;;;;;3.15;1.70;;;23.00;52.00;;;;;;5048878;28;20100;-59
2021/09/22 01:27:55;;;;;;;2.17;1.60;;;23.00;52.00;;;;;;5043131;28;20552;-55
2021/09/22 01:30:21;;;;;;;2.70;1.70;;;23.00;52.00;;;;;;5042583;28;20111;-58
2021/09/22 01:32:49;;;;;;;2.70;1.60;;;23.00;52.00;;;;;;5046606;28;20104;-56
2021/09/22 01:35:15;;;;;;;2.47;1.80;;;23.00;52.00;;;;;;5046738;28;20104;-58
2021/09/22 01:37:41;;;;;;;2.47;1.70;;;23.00;52.00;;;;;;5042184;28;20696;-58
2021/09/22 01:40:07;;;;;;;2.53;1.80;;;23.00;52.00;;;;;;5038739;28;20033;-59
2021/09/22 01:42:33;;;;;;;3.28;1.92;;;23.00;52.00;;;;;;5043418;28;20571;-58
2021/09/22 01:45:06;;;;;;;2.35;1.70;;;23.00;52.00;;;;;;5029984;28;20018;-58
2021/09/22 01:47:32;;;;;;;2.10;1.58;;;22.90;52.00;;;;;;5029362;28;20182;-58
2021/09/22 01:50:07;;;;;;;3.15;1.60;;;22.90;52.00;;;;;;5044648;28;20475;-58
2021/09/22 01:52:33;;;;;;;3.50;1.90;;;22.90;52.00;;;;;;5033125;28;20080;-56
2021/09/22 01:54:59;;;;;;;2.42;1.70;;;22.90;52.00;;;;;;5032999;28;20476;-54
2021/09/22 01:57:25;;;;;;;2.28;1.80;;;22.90;52.10;;;;;;5025024;28;20025;-58
2021/09/22 01:59:50;;;;;;;2.47;1.77;;;22.90;52.10;;;;;;5038958;28;20037;-59
2021/09/22 02:02:16;;;;;;;2.15;1.70;;;22.90;52.10;;;;;;5042110;28;20528;-59
2021/09/22 02:04:42;;;;;;;2.35;1.60;;;22.90;52.10;;;;;;5046538;28;20136;-53
2021/09/22 02:07:08;;;;;;;2.60;1.88;;;22.90;52.10;;;;;;5033528;28;20076;-59
2021/09/22 02:09:34;;;;;;;2.00;1.63;;;22.90;52.10;;;;;;5040113;28;20432;-55
2021/09/22 02:12:00;;;;;;;2.03;1.60;;;22.80;52.00;;;;;;5035069;28;20065;-56
2021/09/22 02:14:25;;;;;;;2.15;1.60;;;22.90;52.10;;;;;;5036833;28;20504;-58
2021/09/22 02:16:51;;;;;;;2.28;1.70;;;22.80;52.00;;;;;;5034710;28;20029;-59
2021/09/22 02:19:17;;;;;;;2.58;1.88;;;22.80;52.00;;;;;;5046839;28;20104;-58
2021/09/22 02:21:42;;;;;;;2.13;1.60;;;22.80;52.00;;;;;;5033160;28;20052;-57
2021/09/22 02:24:08;;;;;;;1.98;1.60;;;22.80;52.10;;;;;;5027965;28;20037;-59
2021/09/22 02:26:33;;;;;;;2.08;1.60;;;22.80;52.10;;;;;;5029561;28;20416;-58
2021/09/22 02:28:59;;;;;;;2.75;1.83;;;22.80;52.10;;;;;;5043714;28;20739;-59
2021/09/22 02:31:24;;;;;;;2.40;1.75;;;22.80;52.00;;;;;;5040516;28;20088;-59
2021/09/22 02:33:50;;;;;;;2.40;1.90;;;22.80;52.10;;;;;;5011323;28;20025;-59
2021/09/22 02:36:16;;;;;;;2.20;1.65;;;22.80;52.10;;;;;;5025286;28;20029;-59
2021/09/22 02:38:41;;;;;;;2.55;1.77;;;22.80;52.10;;;;;;5016222;28;20351;-58
2021/09/22 02:41:07;;;;;;;2.28;1.70;;;22.80;52.10;;;;;;5023891;28;20124;-58
2021/09/22 02:43:33;;;;;;;2.13;1.42;;;22.70;52.10;;;;;;5017688;28;20398;-59
2021/09/22 02:45:59;;;;;;;2.13;1.70;;;22.80;52.10;;;;;;5031370;28;20029;-59
2021/09/22 02:48:24;;;;;;;1.60;1.40;;;22.70;52.10;;;;;;5022599;28;20033;-59
2021/09/22 02:50:51;;;;;;;2.20;1.63;;;22.70;52.10;;;;;;5011577;28;20034;-59
2021/09/22 02:53:17;;;;;;;2.25;1.70;;;22.70;52.10;;;;;;5011203;28;20030;-59
2021/09/22 02:55:43;;;;;;;2.15;1.60;;;22.70;52.20;;;;;;5027304;28;20060;-57
2021/09/22 02:58:09;;;;;;;2.55;1.75;;;22.70;52.10;;;;;;5023916;28;20430;-58
2021/09/22 03:00:35;;;;;;;3.45;1.77;;;22.70;52.20;;;;;;5014437;28;20382;-60
2021/09/22 03:03:01;;;;;;;2.42;1.65;;;22.70;52.20;;;;;;5031716;28;20025;-59
2021/09/22 03:05:26;;;;;;;2.10;1.60;;;22.70;52.20;;;;;;5042942;28;20040;-58
2021/09/22 03:07:52;;;;;;;1.77;1.50;;;22.70;52.20;;;;;;5047789;28;20093;-58
2021/09/22 03:10:19;;;;;;;2.28;1.80;;;22.60;52.10;;;;;;5045874;28;20055;-54
2021/09/22 03:12:45;;;;;;;2.10;1.52;;;22.60;52.10;;;;;;5039643;28;20025;-59
2021/09/22 03:15:11;;;;;;;2.00;1.50;;;22.70;52.20;;;;;;5041789;28;20025;-58
2021/09/22 03:17:37;;;;;;;2.53;1.70;;;22.70;52.20;;;;;;5035805;28;20057;-58
2021/09/22 03:20:03;;;;;;;2.38;1.65;;;22.70;52.20;;;;;;5041787;28;20067;-55
2021/09/22 03:22:29;;;;;;;2.13;1.55;;;22.60;52.10;;;;;;5045661;28;20045;-59
2021/09/22 03:24:55;;;;;;;2.40;1.60;;;22.60;52.10;;;;;;5049496;28;20033;-59
2021/09/22 03:27:21;;;;;;;2.00;1.50;;;22.60;52.20;;;;;;5035861;28;20893;-57
2021/09/22 03:29:46;;;;;;;1.98;1.50;;;22.60;52.20;;;;;;5039052;28;20029;-53
2021/09/22 03:32:12;;;;;;;3.13;1.63;;;22.60;52.20;;;;;;5033379;28;20780;-59
2021/09/22 03:34:37;;;;;;;2.38;1.70;;;22.60;52.20;;;;;;5046428;28;20031;-59
2021/09/22 03:37:04;;;;;;;2.17;1.70;;;22.60;52.20;;;;;;5039379;28;20088;-58
2021/09/22 03:39:29;;;;;;;2.20;1.60;;;22.60;52.20;;;;;;5043709;28;20052;-59
2021/09/22 03:41:55;;;;;;;2.40;1.70;;;22.60;52.20;;;;;;5041026;28;20486;-58
2021/09/22 03:44:21;;;;;;;2.13;1.60;;;22.60;52.20;;;;;;5045215;28;20494;-59
2021/09/22 03:46:47;;;;;;;1.70;1.40;;;22.60;52.20;;;;;;5044385;28;20029;-57
2021/09/22 03:49:13;;;;;;;2.17;1.58;;;22.60;52.20;;;;;;5039158;28;20030;-58
2021/09/22 03:51:38;;;;;;;2.38;1.70;;;22.60;52.20;;;;;;5043413;28;20032;-58
2021/09/22 03:54:04;;;;;;;2.40;1.70;;;22.60;52.20;;;;;;5033864;28;20025;-58
2021/09/22 03:56:30;;;;;;;1.90;1.50;;;22.50;52.20;;;;;;5032277;28;20064;-59
2021/09/22 03:58:55;;;;;;;2.10;1.48;;;22.60;52.20;;;;;;5033794;28;20079;-58
2021/09/22 04:01:21;;;;;;;2.25;1.67;;;22.50;52.20;;;;;;5037161;28;20037;-59
2021/09/22 04:03:47;;;;;;;1.98;1.50;;;22.50;52.20;;;;;;5035759;28;20056;-59
2021/09/22 04:06:13;;;;;;;1.83;1.52;;;22.50;52.20;;;;;;5050351;28;20099;-59
2021/09/22 04:08:38;;;;;;;1.88;1.50;;;22.50;52.20;;;;;;5042384;28;20104;-59
2021/09/22 04:11:04;;;;;;;2.00;1.55;;;22.50;52.30;;;;;;5048391;28;20112;-59
2021/09/22 04:13:30;;;;;;;2.17;1.63;;;22.50;52.30;;;;;;5045363;28;20033;-59
2021/09/22 04:15:55;;;;;;;2.05;1.50;;;22.50;52.30;;;;;;5036324;28;20026;-59
2021/09/22 04:18:21;;;;;;;2.13;1.67;;;22.50;52.30;;;;;;5036550;28;20350;-59
2021/09/22 04:20:46;;;;;;;1.83;1.40;;;22.50;52.30;;;;;;5043159;28;20033;-57
2021/09/22 04:23:12;;;;;;;1.85;1.45;;;22.50;52.30;;;;;;5039091;28;20041;-59
2021/09/22 04:25:38;;;;;;;2.08;1.50;;;22.40;52.30;;;;;;5046688;28;20087;-58
2021/09/22 04:28:04;;;;;;;1.80;1.50;;;22.40;52.30;;;;;;5034872;28;20024;-53
2021/09/22 04:30:29;;;;;;;2.05;1.60;;;22.40;52.20;;;;;;5031745;28;20480;-58
2021/09/22 04:32:55;;;;;;;2.15;1.70;;;22.40;52.30;;;;;;5041573;28;20033;-58
2021/09/22 04:35:20;;;;;;;1.75;1.55;;;22.40;52.30;;;;;;5039697;28;20034;-57
2021/09/22 04:37:47;;;;;;;1.83;1.42;;;22.40;52.30;;;;;;5041045;28;20040;-59
2021/09/22 04:40:14;;;;;;;2.50;1.90;;;22.40;52.20;;;;;;5049380;28;20230;-59
2021/09/22 04:42:40;;;;;;;2.30;1.77;;;22.40;52.20;;;;;;5035940;28;20053;-57
2021/09/22 04:45:06;;;;;;;2.03;1.67;;;22.40;52.20;;;;;;5044860;28;20048;-55
2021/09/22 04:47:33;;;;;;;3.30;1.77;;;22.40;52.20;;;;;;5030399;28;20334;-58
2021/09/22 04:50:02;;;;;;;1.90;1.50;;;22.40;52.20;;;;;;5036696;28;20086;-58
2021/09/22 04:52:28;;;;;;;2.65;1.98;;;22.40;52.10;;;;;;5042845;28;20028;-59
2021/09/22 04:54:53;;;;;;;2.30;1.60;;;22.40;52.10;;;;;;5040583;28;20373;-59
2021/09/22 04:57:19;;;;;;;2.20;1.60;;;22.30;52.00;;;;;;5030686;28;20108;-58
2021/09/22 04:59:45;;;;;;;2.28;1.75;;;22.40;52.10;;;;;;5045133;28;20021;-59
2021/09/22 05:02:10;;;;;;;2.00;1.42;;;22.30;52.00;;;;;;5030832;28;20514;-58
2021/09/22 05:04:36;;;;;;;1.90;1.58;;;22.30;51.90;;;;;;5028992;28;20025;-57
2021/09/22 05:07:02;;;;;;;2.47;1.80;;;22.30;51.90;;;;;;5033871;28;20362;-58
2021/09/22 05:09:27;;;;;;;2.15;1.70;;;22.30;51.90;;;;;;5028625;28;20030;-59
2021/09/22 05:11:54;;;;;;;2.15;1.63;;;22.30;51.80;;;;;;5048788;28;20017;-59
2021/09/22 05:14:20;;;;;;;2.90;1.83;;;22.30;51.80;;;;;;5041581;28;20152;-58
2021/09/22 05:16:46;;;;;;;2.10;1.65;;;22.30;51.80;;;;;;5044996;28;20203;-59
2021/09/22 05:19:11;;;;;;;2.17;1.60;;;22.30;51.80;;;;;;5040397;28;20063;-54
2021/09/22 05:21:37;;;;;;;2.55;1.80;;;22.30;51.80;;;;;;5031543;28;20103;-57
2021/09/22 05:24:03;;;;;;;2.92;1.90;;;22.30;51.80;;;;;;5033380;28;20033;-58
2021/09/22 05:26:28;;;;;;;2.10;1.63;;;22.30;51.90;;;;;;5045477;28;20044;-58
2021/09/22 05:28:54;;;;;;;2.90;1.80;;;22.40;51.70;;;;;;5028668;28;20053;-54
2021/09/22 05:31:19;;;;;;;3.03;1.70;;;22.50;51.70;;;;;;5050589;28;20040;-59
2021/09/22 05:33:45;;;;;;;2.15;1.60;;;22.60;51.60;;;;;;5039591;28;20025;-57
2021/09/22 05:36:11;;;;;;;2.05;1.45;;;22.60;51.40;;;;;;5026828;28;20025;-59
2021/09/22 05:38:36;;;;;;;2.88;1.63;;;22.70;51.30;;;;;;5019349;28;20124;-58
2021/09/22 05:41:02;;;;;;;2.15;1.50;;;22.80;51.10;;;;;;5009101;28;20041;-58
2021/09/22 05:43:27;;;;;;;2.10;1.35;;;22.90;51.00;;;;;;5018530;28;20901;-59
2021/09/22 05:45:53;;;;;;;2.03;1.42;;;22.90;50.90;;;;;;5016928;28;20033;-57
2021/09/22 05:48:19;;;;;;;2.13;1.40;;;23.00;50.80;;;;;;5022665;28;20041;-54
2021/09/22 05:50:45;;;;;;;2.25;1.88;;;23.10;50.70;;;;;;5027189;28;20472;-52
2021/09/22 05:53:10;;;;;;;2.05;1.48;;;23.20;50.50;;;;;;5017657;28;20458;-59
2021/09/22 05:55:36;;;;;;;2.00;1.40;;;23.30;50.40;;;;;;5024958;28;20051;-56
2021/09/22 05:58:02;;;;;;;1.90;1.52;;;23.30;50.70;;;;;;5014635;28;20645;-57
2021/09/22 06:00:27;;;;;;;1.88;1.40;;;23.40;50.60;;;;;;5016255;28;20045;-58
2021/09/22 06:02:53;;;;;;;2.10;1.50;;;23.50;50.00;;;;;;5031860;28;20038;-58
2021/09/22 06:05:18;;;;;;;1.80;1.25;;;23.50;50.40;;;;;;5051246;28;20093;-51
2021/09/22 06:07:44;;;;;;;1.75;1.40;;;23.60;49.70;;;;;;5046116;28;20029;-58
2021/09/22 06:10:10;;;;;;;1.90;1.40;;;23.60;49.60;;;;;;5035889;28;20458;-58
2021/09/22 06:12:35;;;;;;;2.28;1.60;;;23.70;49.40;;;;;;5035043;28;20028;-59
2021/09/22 06:15:01;;;;;;;2.47;1.52;;;23.80;49.30;;;;;;5049491;28;20338;-55
2021/09/22 06:17:27;;;;;;;2.22;1.52;;;23.90;49.20;;;;;;5049251;28;20039;-58
2021/09/22 06:19:52;;;;;;;2.88;1.73;;;23.90;49.10;;;;;;5037189;28;20084;-50
2021/09/22 06:22:24;;;;;;;2.20;1.65;;;24.00;49.00;;;;;;5049109;28;20123;-57
2021/09/22 06:24:50;;;;;;;1.90;1.40;;;24.10;49.00;;;;;;5046177;28;20060;-57
2021/09/22 06:27:16;;;;;;;2.80;1.83;;;24.10;48.80;;;;;;5039104;28;20040;-58
2021/09/22 06:29:41;;;;;;;2.30;1.70;;;24.20;48.70;;;;;;5032436;28;20018;-57
2021/09/22 06:32:07;;;;;;;2.95;1.90;;;24.30;48.60;;;;;;5046485;28;20756;-58
2021/09/22 06:34:33;;;;;;;2.40;1.80;;;24.40;48.40;;;;;;5047184;28;20066;-57
2021/09/22 06:36:59;;;;;;;2.15;1.65;;;24.40;47.90;;;;;;5041142;28;20499;-57
2021/09/22 06:39:24;;;;;;;2.70;1.83;;;24.50;48.10;;;;;;5036107;28;20033;-51
2021/09/22 06:41:50;;;;;;;2.38;1.65;;;24.50;47.80;;;;;;5043131;28;20428;-57
2021/09/22 06:44:15;;;;;;;2.30;1.95;;;24.50;48.00;;;;;;5042483;28;20037;-56
2021/09/22 06:46:41;;;;;;;3.15;1.80;;;24.60;48.00;;;;;;5043416;28;20358;-57
2021/09/22 06:49:07;;;;;;;2.58;1.70;;;24.50;48.00;;;;;;5033821;28;20037;-58
2021/09/22 06:51:32;;;;;;;2.50;1.60;;;24.50;48.00;;;;;;5046177;28;20025;-55
2021/09/22 06:53:58;;;;;;;2.40;1.70;;;24.50;48.00;;;;;;5049455;28;20032;-51
2021/09/22 06:56:25;;;;;;;3.40;1.90;;;24.50;47.90;;;;;;5051561;28;20020;-55
2021/09/22 06:58:51;;;;;;;2.55;1.80;;;24.50;47.90;;;;;;5045126;28;20518;-58
2021/09/22 07:01:17;;;;;;;2.38;1.60;;;24.50;48.00;;;;;;5046170;28;20037;-58
2021/09/22 07:03:42;;;;;;;2.75;1.70;;;24.50;48.00;;;;;;5047745;28;20021;-57
2021/09/22 07:06:09;;;;;;;2.65;1.63;;;24.50;48.00;;;;;;5049284;28;20501;-55
2021/09/22 07:08:35;;;;;;;2.20;1.50;;;24.50;48.10;;;;;;5048493;28;20033;-58
2021/09/22 07:11:00;;;;;;;2.10;1.63;;;24.50;48.10;;;;;;5047002;28;20040;-58
2021/09/22 07:13:26;;;;;;;2.70;1.70;;;24.50;48.10;;;;;;5034630;28;20094;-57
2021/09/22 07:15:52;;;;;;;2.45;1.88;;;24.50;48.10;;;;;;5044379;28;20023;-58
2021/09/22 07:18:18;;;;;;;2.92;1.75;;;24.50;48.10;;;;;;5032800;28;20116;-57
2021/09/22 07:20:45;;;;;;;2.42;1.83;;;24.50;48.10;;;;;;5040616;28;20064;-58
2021/09/22 07:23:10;;;;;;;2.35;1.60;;;24.50;48.10;;;;;;5045081;28;20456;-53
2021/09/22 07:25:36;;;;;;;2.67;1.80;;;24.40;48.10;;;;;;5046257;28;20103;-58
2021/09/22 07:28:01;;;;;;;2.33;1.50;;;24.50;48.10;;;;;;5044895;28;20374;-58
2021/09/22 07:30:27;;;;;;;2.50;1.75;;;24.40;48.10;;;;;;5049812;28;20044;-58
2021/09/22 07:32:54;;;;;;;2.50;1.80;;;24.50;48.10;;;;;;5031983;28;20041;-58
2021/09/22 07:35:19;;;;;;;2.28;1.60;;;24.50;48.10;;;;;;5030768;28;20463;-58
2021/09/22 07:37:46;;;;;;;2.63;1.70;;;24.50;48.10;;;;;;5041472;28;20128;-55
2021/09/22 07:40:13;;;;;;;2.42;1.80;;;24.50;48.10;;;;;;5050582;28;20490;-58
2021/09/22 07:42:38;;;;;;;2.65;1.85;;;24.40;48.10;;;;;;5039449;28;20025;-57
2021/09/22 07:45:06;;;;;;;2.83;1.70;;;24.40;48.10;;;;;;5036087;28;20026;-53
2021/09/22 07:47:32;;;;;;;2.35;1.80;;;24.50;48.20;;;;;;5046087;28;20047;-55
2021/09/22 07:49:57;;;;;;;2.13;1.60;;;24.50;48.10;;;;;;5040716;28;20030;-58
2021/09/22 07:52:23;;;;;;;2.00;1.60;;;24.50;48.10;;;;;;5032185;28;20441;-58
2021/09/22 07:54:48;;;;;;;2.00;1.60;;;24.50;48.10;;;;;;5032036;28;20017;-54
2021/09/22 07:57:14;;;;;;;2.10;1.60;;;24.50;48.10;;;;;;5028983;28;20087;-58
2021/09/22 07:59:40;;;;;;;2.53;1.70;;;24.50;48.10;;;;;;5045711;28;20021;-56
2021/09/22 08:02:06;;;;;;;2.42;1.80;;;24.50;48.10;;;;;;5015672;28;20123;-54
2021/09/22 08:04:32;;;;;;;3.05;1.80;;;24.50;48.10;;;;;;5010662;28;20044;-58
2021/09/22 08:07:02;;;;;;;2.50;1.80;;;24.40;48.10;;;;;;5010160;28;20022;-58
2021/09/22 08:09:27;;;;;;;2.30;1.70;;;24.50;48.10;;;;;;5019831;28;20081;-56
2021/09/22 08:11:53;;;;;;;2.42;1.52;;;24.50;48.10;;;;;;5018699;28;20061;-58
2021/09/22 08:14:19;;;;;;;2.15;1.60;;;24.50;48.10;;;;;;5018607;28;20025;-59
2021/09/22 08:16:45;;;;;;;2.55;1.70;;;24.50;48.10;;;;;;5024656;28;20501;-58
2021/09/22 08:19:13;;;;;;;2.10;1.60;;;24.50;48.10;;;;;;5022161;28;20071;-57
2021/09/22 08:21:39;;;;;;;2.55;1.80;;;24.50;48.30;;;;;;5016640;28;20116;-58
2021/09/22 08:24:04;;;;;;;2.47;1.60;;;24.50;48.30;;;;;;5014356;28;20160;-58
2021/09/22 08:26:30;;;;;;;2.50;1.95;;;24.50;48.30;;;;;;5014076;28;20029;-51
2021/09/22 08:28:56;;;;;;;3.15;1.80;;;24.50;48.20;;;;;;5025054;28;20040;-54
2021/09/22 08:31:22;;;;;;;2.20;1.60;;;24.50;48.20;;;;;;5030908;28;20053;-56
2021/09/22 08:33:48;;;;;;;2.35;1.70;;;24.40;48.20;;;;;;5042612;28;20032;-58
2021/09/22 08:36:13;;;;;;;2.55;1.60;;;24.40;48.20;;;;;;5044353;28;20033;-58
2021/09/22 08:38:39;;;;;;;2.72;1.70;;;24.50;48.20;;;;;;5034692;28;20032;-54
2021/09/22 08:41:05;;;;;;;2.42;1.80;;;24.50;48.20;;;;;;5047988;28;20029;-58
2021/09/22 08:43:31;;;;;;;2.47;1.80;;;24.50;48.20;;;;;;5032557;28;20021;-58
2021/09/22 08:46:04;;;;;;;2.50;1.75;;;24.50;48.20;;;;;;5051997;28;20392;-53
2021/09/22 08:48:30;;;;;;;2.00;1.45;;;24.50;48.20;;;;;;5031699;28;20026;-59
2021/09/22 08:50:56;;;;;;;2.63;1.80;;;24.50;48.20;;;;;;5040834;28;20576;-60
2021/09/22 08:53:22;;;;;;;2.33;1.60;;;24.50;48.20;;;;;;5026900;28;20030;-58
2021/09/22 08:55:48;;;;;;;2.22;1.70;;;24.50;48.70;;;;;;5027084;28;20028;-59
2021/09/22 08:58:14;;;;;;;2.90;1.90;;;24.50;48.20;;;;;;5035914;28;20511;-60
2021/09/22 09:00:40;;;;;;;3.42;1.70;;;24.50;48.20;;;;;;5043122;28;20407;-60
2021/09/22 09:03:06;;;;;;;2.95;2.15;;;24.50;48.20;;;;;;5041375;28;20037;-60
2021/09/22 09:05:31;;;;;;;2.10;1.60;;;24.60;48.20;;;;;;5048407;28;20044;-58
2021/09/22 09:08:00;;;;;;;2.35;1.70;;;24.50;48.10;;;;;;5044825;28;20025;-60
2021/09/22 09:10:32;;;;;;;3.33;1.80;;;24.60;48.20;;;;;;5045403;28;20022;-59
2021/09/22 09:13:00;;;;;;;2.22;1.50;;;24.60;48.20;;;;;;5042225;28;20394;-60
2021/09/22 09:15:36;;;;;;;2.60;1.90;;;24.60;48.30;;;;;;5043952;28;20494;-60
2021/09/22 09:18:25;;;;;;;2.35;1.65;;;24.50;48.30;;;;;;5037158;28;20029;-56
2021/09/22 09:20:53;;;;;;;2.15;1.48;;;24.50;48.30;;;;;;5045376;28;20063;-57
2021/09/22 09:23:21;;;;;;;3.15;1.50;;;24.60;48.40;;;;;;5041861;28;20037;-60
2021/09/22 09:26:03;;;;;;;2.40;1.67;;;24.60;48.30;;;;;;5044918;28;20032;-60
2021/09/22 09:28:38;;;;;;;2.35;1.75;;;24.60;48.40;;;;;;5040881;28;20029;-60
2021/09/22 09:31:11;;;;;;;2.10;1.70;;;24.60;48.30;;;;;;5051779;28;20632;-59
2021/09/22 09:33:41;;;;;;;2.55;1.70;;;24.60;48.30;;;;;;5056456;28;20025;-59
2021/09/22 09:36:16;;;;;;;2.38;1.65;;;24.60;48.30;;;;;;5054727;28;20021;-60
2021/09/22 09:38:50;;;;;;;2.22;1.70;;;24.60;48.20;;;;;;5043164;28;20044;-57
2021/09/22 09:41:42;;;;;;;2.65;1.75;;;24.70;48.30;;;;;;5044239;28;20028;-59
2021/09/22 09:44:13;;;;;;;1.88;1.40;;;24.70;48.20;;;;;;5043085;28;20134;-59
2021/09/22 09:46:39;;;;;;;2.10;1.60;;;24.70;48.10;;;;;;5043668;28;20021;-60
2021/09/22 09:49:17;;;;;;;2.00;1.50;;;24.70;48.10;;;;;;5041535;28;20025;-55
2021/09/22 09:51:48;;;;;;;2.05;1.63;;;24.70;48.20;;;;;;5038124;28;20029;-60
2021/09/22 09:54:24;;;;;;;3.33;1.88;;;24.70;48.10;;;;;;5041388;28;20045;-59
2021/09/22 09:56:55;;;;;;;2.10;1.67;;;24.70;48.10;;;;;;5034365;28;20087;-60
2021/09/22 09:59:23;;;;;;;2.00;1.50;;;24.70;48.10;;;;;;5029005;28;20595;-55
2021/09/22 10:01:52;;;;;;;2.63;1.70;;;24.70;48.20;;;;;;5025384;28;20038;-57
2021/09/22 10:04:21;;;;;;;2.40;1.80;;;24.70;48.20;;;;;;5023095;28;20086;-57
2021/09/22 10:06:47;;;;;;;2.13;1.60;;;24.70;48.20;;;;;;5032138;28;20124;-59
2021/09/22 10:09:14;;;;;;;2.25;1.60;;;24.70;48.20;;;;;;5026050;28;22310;-59
2021/09/22 10:11:44;;;;;;;2.03;1.67;;;24.70;48.20;;;;;;5027027;28;20154;-60
2021/09/22 10:14:10;;;;;;;2.17;1.60;;;24.70;48.20;;;;;;5028629;28;20033;-56
2021/09/22 10:16:37;;;;;;;1.77;1.45;;;24.70;48.20;;;;;;5028693;28;20030;-59
2021/09/22 10:19:05;;;;;;;2.95;1.70;;;24.70;48.20;;;;;;5026011;28;20473;-59
2021/09/22 10:21:33;;;;;;;2.40;1.65;;;24.70;48.10;;;;;;5027339;28;20059;-60
2021/09/22 10:24:00;;;;;;;2.67;1.70;;;24.70;48.10;;;;;;5030657;28;20099;-60
2021/09/22 10:26:27;;;;;;;1.98;1.30;;;24.70;48.20;;;;;;5030516;28;20057;-56
2021/09/22 10:28:55;;;;;;;2.20;1.40;;;24.70;48.20;;;;;;5028936;28;20033;-59
2021/09/22 10:31:21;;;;;;;1.80;1.38;;;24.70;48.10;;;;;;5040608;28;20501;-60
2021/09/22 10:33:47;;;;;;;2.33;1.33;;;24.70;48.20;;;;;;5030783;28;20097;-60
2021/09/22 10:36:16;;;;;;;2.00;1.40;;;24.70;48.30;;;;;;5027763;28;20069;-59
2021/09/22 10:38:47;;;;;;;2.13;1.67;;;24.70;48.30;;;;;;5035960;28;20037;-59
2021/09/22 10:41:28;;;;;;;2.80;1.60;;;24.70;48.30;;;;;;5033846;28;20052;-54
2021/09/22 10:43:54;;;;;;;1.90;1.60;;;24.80;48.80;;;;;;5029987;28;20461;-60
2021/09/22 10:46:21;;;;;;;2.15;1.60;;;24.80;48.20;;;;;;5030889;28;20029;-61
2021/09/22 10:49:01;;;;;;;2.85;1.42;;;24.80;48.20;;;;;;5035342;28;20030;-60
2021/09/22 10:51:46;;;;;;;4.57;1.70;;;24.80;48.20;;;;;;5035269;28;20060;-60
2021/09/22 10:54:17;;;;;;;2.10;1.50;;;24.80;48.20;;;;;;5030181;28;20602;-60
2021/09/22 10:56:49;;;;;;;2.20;1.52;;;24.80;48.20;;;;;;5027552;28;20017;-58
2021/09/22 10:59:32;;;;;;;2.47;1.80;;;24.80;48.30;;;;;;5029881;28;20033;-60
2021/09/22 11:01:59;;;;;;;2.42;1.70;;;24.80;48.20;;;;;;5022762;28;20036;-59
2021/09/22 11:04:25;;;;;;;2.00;1.48;;;24.80;48.10;;;;;;5032710;28;20500;-59
2021/09/22 11:06:56;;;;;;;1.65;1.30;;;24.80;48.10;;;;;;5031453;28;20104;-59
2021/09/22 11:09:22;;;;;;;1.73;1.40;;;24.80;48.20;;;;;;5031183;28;20080;-59
2021/09/22 11:11:56;;;;;;;1.70;1.30;;;24.80;48.20;;;;;;5025282;28;20034;-59
2021/09/22 11:14:30;;;;;;;2.53;1.50;;;24.80;48.20;;;;;;5025706;28;20037;-58
2021/09/22 11:16:58;;;;;;;2.45;1.40;;;24.80;48.30;;;;;;5022442;28;20077;-58
2021/09/22 11:19:25;;;;;;;1.50;1.23;;;24.80;48.30;;;;;;5029909;28;20048;-60
2021/09/22 11:21:50;;;;;;;1.75;1.30;;;24.90;48.40;;;;;;5033409;28;20029;-60
2021/09/22 11:24:22;;;;;;;1.60;1.20;;;24.90;48.40;;;;;;5035391;28;20039;-58
2021/09/22 11:26:50;;;;;;;1.75;1.33;;;24.90;48.90;;;;;;5027263;28;20091;-58
2021/09/22 11:29:49;;;;;;;1.65;1.30;;;24.90;48.40;;;;;;5027204;28;20021;-60
2021/09/22 11:32:38;;;;;;;2.05;1.42;;;24.90;48.50;;;;;;5024905;28;20042;-60
2021/09/22 11:35:10;;;;;;;;;;;24.90;48.30;;;;;;5036415;28;20033;-59
2021/09/22 11:37:40;;;;;;;1.52;1.10;;;25.00;48.40;;;;;;5028313;28;19917;-60
2021/09/22 11:40:22;;;;;;;2.10;1.20;;;25.00;48.40;;;;;;5029807;28;20053;-57
2021/09/22 11:43:00;;;;;;;1.67;1.25;;;25.00;48.30;;;;;;5023121;28;20040;-60
2021/09/22 11:45:37;;;;;;;1.80;1.30;;;25.00;48.40;;;;;;5025928;28;20041;-59
2021/09/22 11:48:03;;;;;;;1.50;1.35;;;25.00;48.40;;;;;;5030661;28;20032;-60
2021/09/22 11:50:39;;;;;;;2.25;1.35;;;24.90;48.30;;;;;;5024700;28;20040;-56
2021/09/22 11:53:09;;;;;;;1.52;1.15;;;25.00;48.40;;;;;;5030661;28;20029;-55
2021/09/22 11:55:36;;;;;;;2.03;1.30;;;25.00;48.40;;;;;;5024557;28;20060;-59
2021/09/22 11:58:18;;;;;;;2.15;1.50;;;25.00;48.40;;;;;;5018368;28;20022;-59
2021/09/22 12:00:49;;;;;;;2.15;1.40;;;25.00;48.40;;;;;;5023565;28;20045;-55
2021/09/22 12:03:15;;;;;;;1.42;1.15;;;25.00;48.30;;;;;;5018743;28;20052;-58
2021/09/22 12:05:42;;;;;;;1.33;1.10;;;25.00;48.40;;;;;;5025834;28;20041;-60
2021/09/22 12:08:11;;;;;;;1.65;1.35;;;25.00;48.90;;;;;;5040526;28;20557;-54
2021/09/22 12:10:42;;;;;;;2.00;1.35;;;25.00;48.40;;;;;;5028463;28;20087;-60
2021/09/22 12:13:07;;;;;;;1.50;1.20;;;25.00;48.40;;;;;;5026150;28;20029;-59
2021/09/22 12:15:34;;;;;;;1.58;1.13;;;25.00;48.90;;;;;;5021907;28;20029;-60
2021/09/22 12:18:00;;;;;;;1.73;1.33;;;25.00;48.50;;;;;;5024071;28;20381;-60
2021/09/22 12:20:27;;;;;;;1.80;1.30;;;25.10;48.40;;;;;;5026496;28;20030;-57
2021/09/22 12:23:02;;;;;;;1.45;1.15;;;25.10;48.40;;;;;;5017146;28;20041;-58
2021/09/22 12:25:28;;;;;;;2.08;1.35;;;25.10;48.40;;;;;;5015436;28;20033;-60
2021/09/22 12:27:54;;;;;;;1.98;1.20;;;25.10;48.50;;;;;;5023837;28;20200;-59
2021/09/22 12:30:38;;;;;;;1.65;1.10;;;25.10;48.40;;;;;;5024354;28;20055;-54
2021/09/22 12:33:07;;;;;;;1.63;1.20;;;25.10;48.40;;;;;;5030203;28;20025;-60
2021/09/22 12:35:43;;;;;;;1.95;1.30;;;25.10;48.40;;;;;;5016812;28;20038;-54
2021/09/22 12:38:15;;;;;;;1.90;1.30;;;25.10;48.40;;;;;;5019203;28;20036;-60
2021/09/22 12:40:44;;;;;;;2.85;1.30;;;25.10;48.40;;;;;;5025420;28;20135;-59
2021/09/22 12:43:23;;;;;;;1.45;1.15;;;25.10;48.50;;;;;;5018427;28;20037;-60
2021/09/22 12:45:50;;;;;;;1.40;1.20;;;25.10;48.50;;;;;;5022596;28;20109;-59
2021/09/22 12:48:26;;;;;;;1.83;1.27;;;25.20;49.00;;;;;;5026586;28;20040;-59